sensor_id;sensor_type;location;lat;lon;timestamp;pressure;altitude;pressure_sealevel;temperature;humidity
68889;BME280;55930;47.412;8.790;2023-02-14T00:02:23;96303.53;;;-2.59;100.00
68889;BME280;55930;47.412;8.790;2023-02-14T00:05:43;96301.97;;;-2.48;100.00
68889;BME280;55930;47.412;8.790;2023-02-14T00:09:05;96302.34;;;-2.61;100.00
68889;BME280;55930;47.412;8.790;2023-02-14T00:12:28;96302.63;;;-2.51;100.00
68889;BME280;55930;47.412;8.790;2023-02-14T00:15:48;96296.94;;;-2.56;100.00
68889;BME280;55930;47.412;8.790;2023-02-14T00:19:13;96298.72;;;-2.73;100.00
68889;BME280;55930;47.412;8.790;2023-02-14T00:22:34;96300.38;;;-2.52;100.00
68889;BME280;55930;47.412;8.790;2023-02-14T00:25:56;96311.47;;;-2.67;100.00
68889;BME280;55930;47.412;8.790;2023-02-14T00:29:20;96306.56;;;-2.57;100.00
68889;BME280;55930;47.412;8.790;2023-02-14T00:32:41;96303.50;;;-2.87;100.00
68889;BME280;55930;47.412;8.790;2023-02-14T00:36:03;96308.16;;;-2.80;100.00
68889;BME280;55930;47.412;8.790;2023-02-14T00:39:24;96306.72;;;-2.78;100.00
68889;BME280;55930;47.412;8.790;2023-02-14T00:42:44;96300.28;;;-2.96;100.00
68889;BME280;55930;47.412;8.790;2023-02-14T00:46:05;96305.47;;;-2.96;100.00
68889;BME280;55930;47.412;8.790;2023-02-14T00:49:25;96308.16;;;-2.92;100.00
68889;BME280;55930;47.412;8.790;2023-02-14T00:52:45;96301.38;;;-2.97;100.00
68889;BME280;55930;47.412;8.790;2023-02-14T00:56:06;96303.34;;;-3.18;100.00
68889;BME280;55930;47.412;8.790;2023-02-14T00:59:27;96308.09;;;-3.08;100.00
68889;BME280;55930;47.412;8.790;2023-02-14T01:02:47;96300.81;;;-3.02;100.00
68889;BME280;55930;47.412;8.790;2023-02-14T01:06:08;96300.22;;;-3.12;100.00
68889;BME280;55930;47.412;8.790;2023-02-14T01:09:28;96301.06;;;-3.08;100.00
68889;BME280;55930;47.412;8.790;2023-02-14T01:12:48;96305.53;;;-3.32;100.00
68889;BME280;55930;47.412;8.790;2023-02-14T01:16:14;96307.06;;;-3.43;100.00
68889;BME280;55930;47.412;8.790;2023-02-14T01:19:34;96297.09;;;-3.29;100.00
68889;BME280;55930;47.412;8.790;2023-02-14T01:22:57;96296.22;;;-3.58;100.00
68889;BME280;55930;47.412;8.790;2023-02-14T01:26:20;96298.94;;;-3.54;100.00
68889;BME280;55930;47.412;8.790;2023-02-14T01:29:40;96289.88;;;-3.60;100.00
68889;BME280;55930;47.412;8.790;2023-02-14T01:33:01;96295.16;;;-3.57;100.00
68889;BME280;55930;47.412;8.790;2023-02-14T01:36:31;96295.25;;;-3.65;100.00
68889;BME280;55930;47.412;8.790;2023-02-14T01:39:52;96293.00;;;-3.55;100.00
68889;BME280;55930;47.412;8.790;2023-02-14T01:43:15;96289.09;;;-3.49;100.00
68889;BME280;55930;47.412;8.790;2023-02-14T01:46:36;96276.91;;;-3.60;100.00
68889;BME280;55930;47.412;8.790;2023-02-14T01:50:02;96277.31;;;-3.70;100.00
68889;BME280;55930;47.412;8.790;2023-02-14T01:53:27;96273.31;;;-3.80;100.00
68889;BME280;55930;47.412;8.790;2023-02-14T01:56:50;96280.97;;;-3.96;100.00
68889;BME280;55930;47.412;8.790;2023-02-14T02:00:15;96278.28;;;-3.87;100.00
68889;BME280;55930;47.412;8.790;2023-02-14T02:03:56;96278.19;;;-3.78;100.00
68889;BME280;55930;47.412;8.790;2023-02-14T02:07:22;96267.91;;;-3.87;100.00
68889;BME280;55930;47.412;8.790;2023-02-14T02:10:46;96269.44;;;-3.74;100.00
68889;BME280;55930;47.412;8.790;2023-02-14T02:14:12;96266.84;;;-3.74;100.00
68889;BME280;55930;47.412;8.790;2023-02-14T02:18:21;96270.06;;;-4.01;100.00
68889;BME280;55930;47.412;8.790;2023-02-14T02:25:58;96260.78;;;-4.02;100.00
68889;BME280;55930;47.412;8.790;2023-02-14T02:47:53;96256.41;;;-4.22;100.00
68889;BME280;55930;47.412;8.790;2023-02-14T02:51:30;96255.34;;;-4.21;100.00
68889;BME280;55930;47.412;8.790;2023-02-14T02:59:36;96248.19;;;-4.37;100.00
68889;BME280;55930;47.412;8.790;2023-02-14T03:02:59;96247.47;;;-4.25;100.00
68889;BME280;55930;47.412;8.790;2023-02-14T03:06:39;96250.59;;;-4.32;100.00
68889;BME280;55930;47.412;8.790;2023-02-14T03:10:22;96245.81;;;-4.30;100.00
68889;BME280;55930;47.412;8.790;2023-02-14T03:13:42;96246.44;;;-4.45;100.00
68889;BME280;55930;47.412;8.790;2023-02-14T03:17:28;96241.00;;;-4.19;100.00
68889;BME280;55930;47.412;8.790;2023-02-14T03:24:50;96254.94;;;-4.23;100.00
68889;BME280;55930;47.412;8.790;2023-02-14T03:28:19;96243.41;;;-4.47;100.00
68889;BME280;55930;47.412;8.790;2023-02-14T03:31:54;96251.84;;;-4.38;100.00
68889;BME280;55930;47.412;8.790;2023-02-14T03:35:21;96255.53;;;-4.39;100.00
68889;BME280;55930;47.412;8.790;2023-02-14T03:38:49;96249.94;;;-4.29;100.00
68889;BME280;55930;47.412;8.790;2023-02-14T03:42:19;96245.78;;;-4.09;100.00
68889;BME280;55930;47.412;8.790;2023-02-14T03:46:07;96250.06;;;-4.25;100.00
68889;BME280;55930;47.412;8.790;2023-02-14T03:49:31;96251.53;;;-4.36;100.00
68889;BME280;55930;47.412;8.790;2023-02-14T03:52:55;96242.63;;;-4.14;100.00
68889;BME280;55930;47.412;8.790;2023-02-14T03:56:28;96251.25;;;-4.22;100.00
68889;BME280;55930;47.412;8.790;2023-02-14T03:59:52;96264.00;;;-4.17;100.00
68889;BME280;55930;47.412;8.790;2023-02-14T04:03:15;96258.28;;;-4.23;100.00
68889;BME280;55930;47.412;8.790;2023-02-14T04:06:37;96253.94;;;-4.31;100.00
68889;BME280;55930;47.412;8.790;2023-02-14T04:09:57;96251.66;;;-4.33;100.00
68889;BME280;55930;47.412;8.790;2023-02-14T04:13:18;96250.59;;;-4.32;100.00
68889;BME280;55930;47.412;8.790;2023-02-14T04:16:38;96254.34;;;-4.29;100.00
68889;BME280;55930;47.412;8.790;2023-02-14T04:20:19;96261.28;;;-4.33;100.00
68889;BME280;55930;47.412;8.790;2023-02-14T04:23:39;96255.34;;;-4.34;100.00
68889;BME280;55930;47.412;8.790;2023-02-14T04:27:00;96260.16;;;-4.44;100.00
68889;BME280;55930;47.412;8.790;2023-02-14T04:30:31;96256.56;;;-4.52;100.00
68889;BME280;55930;47.412;8.790;2023-02-14T04:33:51;96258.88;;;-4.38;100.00
68889;BME280;55930;47.412;8.790;2023-02-14T04:37:12;96251.19;;;-4.47;100.00
68889;BME280;55930;47.412;8.790;2023-02-14T04:40:33;96255.19;;;-4.49;100.00
68889;BME280;55930;47.412;8.790;2023-02-14T04:43:54;96242.69;;;-4.47;100.00
68889;BME280;55930;47.412;8.790;2023-02-14T04:47:14;96242.47;;;-4.42;100.00
68889;BME280;55930;47.412;8.790;2023-02-14T04:50:36;96248.63;;;-4.35;100.00
68889;BME280;55930;47.412;8.790;2023-02-14T04:53:56;96253.19;;;-4.19;100.00
68889;BME280;55930;47.412;8.790;2023-02-14T04:57:17;96254.75;;;-4.51;100.00
68889;BME280;55930;47.412;8.790;2023-02-14T05:00:37;96251.16;;;-4.59;100.00
68889;BME280;55930;47.412;8.790;2023-02-14T05:03:57;96245.63;;;-4.70;100.00
68889;BME280;55930;47.412;8.790;2023-02-14T05:07:18;96241.84;;;-4.39;100.00
68889;BME280;55930;47.412;8.790;2023-02-14T05:10:39;96246.44;;;-4.57;100.00
68889;BME280;55930;47.412;8.790;2023-02-14T05:13:59;96239.34;;;-4.48;100.00
68889;BME280;55930;47.412;8.790;2023-02-14T05:17:19;96242.00;;;-4.56;100.00
68889;BME280;55930;47.412;8.790;2023-02-14T05:20:40;96247.28;;;-4.53;100.00
68889;BME280;55930;47.412;8.790;2023-02-14T05:24:00;96252.44;;;-4.65;100.00
68889;BME280;55930;47.412;8.790;2023-02-14T05:27:23;96252.69;;;-4.58;100.00
68889;BME280;55930;47.412;8.790;2023-02-14T05:30:44;96250.28;;;-4.63;100.00
68889;BME280;55930;47.412;8.790;2023-02-14T05:34:04;96252.53;;;-4.62;100.00
68889;BME280;55930;47.412;8.790;2023-02-14T05:37:25;96241.78;;;-4.64;100.00
68889;BME280;55930;47.412;8.790;2023-02-14T05:40:45;96249.47;;;-4.76;100.00
68889;BME280;55930;47.412;8.790;2023-02-14T05:44:06;96258.25;;;-4.68;100.00
68889;BME280;55930;47.412;8.790;2023-02-14T05:47:26;96259.84;;;-4.76;100.00
68889;BME280;55930;47.412;8.790;2023-02-14T05:50:46;96266.13;;;-4.65;100.00
68889;BME280;55930;47.412;8.790;2023-02-14T05:54:07;96261.72;;;-4.64;100.00
68889;BME280;55930;47.412;8.790;2023-02-14T05:57:29;96262.09;;;-4.74;100.00
68889;BME280;55930;47.412;8.790;2023-02-14T06:00:49;96262.19;;;-4.83;100.00
68889;BME280;55930;47.412;8.790;2023-02-14T06:04:09;96254.16;;;-4.90;100.00
68889;BME280;55930;47.412;8.790;2023-02-14T06:07:30;96265.06;;;-4.84;100.00
68889;BME280;55930;47.412;8.790;2023-02-14T06:10:50;96262.38;;;-4.88;100.00
68889;BME280;55930;47.412;8.790;2023-02-14T06:14:11;96258.97;;;-5.01;100.00
68889;BME280;55930;47.412;8.790;2023-02-14T06:17:31;96253.78;;;-5.01;100.00
68889;BME280;55930;47.412;8.790;2023-02-14T06:20:52;96256.75;;;-4.90;100.00
68889;BME280;55930;47.412;8.790;2023-02-14T06:24:13;96272.59;;;-4.91;100.00
68889;BME280;55930;47.412;8.790;2023-02-14T06:27:34;96267.78;;;-5.02;100.00
68889;BME280;55930;47.412;8.790;2023-02-14T06:30:54;96265.41;;;-5.07;100.00
68889;BME280;55930;47.412;8.790;2023-02-14T06:34:14;96273.91;;;-4.85;100.00
68889;BME280;55930;47.412;8.790;2023-02-14T06:37:35;96277.16;;;-4.88;100.00
68889;BME280;55930;47.412;8.790;2023-02-14T06:41:08;96285.16;;;-4.81;100.00
68889;BME280;55930;47.412;8.790;2023-02-14T06:44:29;96291.25;;;-4.86;100.00
68889;BME280;55930;47.412;8.790;2023-02-14T06:47:49;96291.47;;;-5.12;100.00
68889;BME280;55930;47.412;8.790;2023-02-14T06:51:10;96284.03;;;-5.13;100.00
68889;BME280;55930;47.412;8.790;2023-02-14T06:54:31;96289.31;;;-4.89;100.00
68889;BME280;55930;47.412;8.790;2023-02-14T06:57:51;96291.47;;;-4.91;100.00
68889;BME280;55930;47.412;8.790;2023-02-14T07:01:12;96300.53;;;-4.85;100.00
68889;BME280;55930;47.412;8.790;2023-02-14T07:04:32;96302.94;;;-4.59;100.00
68889;BME280;55930;47.412;8.790;2023-02-14T07:07:53;96295.25;;;-4.68;100.00
68889;BME280;55930;47.412;8.790;2023-02-14T07:11:15;96296.72;;;-4.46;100.00
68889;BME280;55930;47.412;8.790;2023-02-14T07:14:36;96295.09;;;-4.17;100.00
68889;BME280;55930;47.412;8.790;2023-02-14T07:17:56;96294.88;;;-4.12;100.00
68889;BME280;55930;47.412;8.790;2023-02-14T07:21:17;96293.69;;;-4.15;100.00
68889;BME280;55930;47.412;8.790;2023-02-14T07:24:38;96296.44;;;-3.75;100.00
68889;BME280;55930;47.412;8.790;2023-02-14T07:27:58;96287.78;;;-3.30;100.00
68889;BME280;55930;47.412;8.790;2023-02-14T07:31:21;96287.88;;;-3.27;100.00
68889;BME280;55930;47.412;8.790;2023-02-14T07:34:42;96290.94;;;-2.85;100.00
68889;BME280;55930;47.412;8.790;2023-02-14T07:38:03;96281.91;;;-3.03;100.00
68889;BME280;55930;47.412;8.790;2023-02-14T07:41:23;96275.53;;;-2.22;100.00
68889;BME280;55930;47.412;8.790;2023-02-14T07:44:46;96278.78;;;-1.31;100.00
68889;BME280;55930;47.412;8.790;2023-02-14T07:48:06;96281.75;;;-1.48;100.00
68889;BME280;55930;47.412;8.790;2023-02-14T07:51:26;96280.22;;;-0.98;100.00
68889;BME280;55930;47.412;8.790;2023-02-14T07:54:47;96282.28;;;-0.08;100.00
68889;BME280;55930;47.412;8.790;2023-02-14T07:58:07;96282.38;;;0.94;97.69
68889;BME280;55930;47.412;8.790;2023-02-14T08:01:28;96282.06;;;0.01;100.00
68889;BME280;55930;47.412;8.790;2023-02-14T08:04:49;96287.25;;;0.69;100.00
68889;BME280;55930;47.412;8.790;2023-02-14T08:08:10;96278.38;;;0.02;100.00
68889;BME280;55930;47.412;8.790;2023-02-14T08:11:31;96277.50;;;0.93;100.00
68889;BME280;55930;47.412;8.790;2023-02-14T08:15:10;96271.19;;;0.97;100.00
68889;BME280;55930;47.412;8.790;2023-02-14T08:18:49;96265.88;;;1.50;99.28
68889;BME280;55930;47.412;8.790;2023-02-14T08:22:10;96267.69;;;2.23;95.26
68889;BME280;55930;47.412;8.790;2023-02-14T08:25:30;96270.31;;;1.16;97.26
68889;BME280;55930;47.412;8.790;2023-02-14T08:28:51;96260.75;;;2.45;95.67
68889;BME280;55930;47.412;8.790;2023-02-14T08:32:12;96257.78;;;2.47;92.74
68889;BME280;55930;47.412;8.790;2023-02-14T08:35:34;96256.31;;;2.56;90.49
68889;BME280;55930;47.412;8.790;2023-02-14T08:38:55;96249.25;;;2.64;91.18
68889;BME280;55930;47.412;8.790;2023-02-14T08:42:16;96252.13;;;3.03;89.99
68889;BME280;55930;47.412;8.790;2023-02-14T08:45:37;96254.69;;;2.96;88.82
68889;BME280;55930;47.412;8.790;2023-02-14T08:48:58;96248.06;;;3.16;89.37
68889;BME280;55930;47.412;8.790;2023-02-14T08:52:19;96251.91;;;2.67;90.71
68889;BME280;55930;47.412;8.790;2023-02-14T08:55:39;96251.41;;;3.10;90.16
68889;BME280;55930;47.412;8.790;2023-02-14T08:59:00;96259.53;;;4.02;87.73
68889;BME280;55930;47.412;8.790;2023-02-14T09:02:20;96256.53;;;4.78;80.27
68889;BME280;55930;47.412;8.790;2023-02-14T09:05:40;96257.75;;;6.23;75.21
68889;BME280;55930;47.412;8.790;2023-02-14T09:09:01;96250.03;;;5.94;74.89
68889;BME280;55930;47.412;8.790;2023-02-14T09:12:21;96258.72;;;5.84;75.20
68889;BME280;55930;47.412;8.790;2023-02-14T09:15:44;96250.19;;;7.10;70.46
68889;BME280;55930;47.412;8.790;2023-02-14T09:19:04;96245.25;;;6.75;70.13
68889;BME280;55930;47.412;8.790;2023-02-14T09:22:25;96239.53;;;8.32;67.25
68889;BME280;55930;47.412;8.790;2023-02-14T09:25:45;96235.19;;;11.38;57.34
68889;BME280;55930;47.412;8.790;2023-02-14T09:29:06;96236.03;;;11.06;54.51
68889;BME280;55930;47.412;8.790;2023-02-14T09:32:26;96236.75;;;13.31;48.59
68889;BME280;55930;47.412;8.790;2023-02-14T09:35:48;96228.78;;;15.33;42.42
68889;BME280;55930;47.412;8.790;2023-02-14T09:39:27;96231.94;;;15.32;40.87
68889;BME280;55930;47.412;8.790;2023-02-14T09:42:58;96225.41;;;15.06;41.13
68889;BME280;55930;47.412;8.790;2023-02-14T09:46:23;96218.88;;;16.18;39.68
68889;BME280;55930;47.412;8.790;2023-02-14T09:49:44;96220.75;;;15.33;41.45
68889;BME280;55930;47.412;8.790;2023-02-14T09:53:30;96219.31;;;15.23;41.48
68889;BME280;55930;47.412;8.790;2023-02-14T09:57:00;96230.19;;;16.70;39.24
68889;BME280;55930;47.412;8.790;2023-02-14T10:00:42;96216.09;;;15.71;41.23
68889;BME280;55930;47.412;8.790;2023-02-14T10:11:17;96213.31;;;11.72;50.42
68889;BME280;55930;47.412;8.790;2023-02-14T10:14:40;96204.41;;;17.11;39.11
68889;BME280;55930;47.412;8.790;2023-02-14T10:18:13;96196.78;;;18.53;35.69
68889;BME280;55930;47.412;8.790;2023-02-14T10:21:41;96195.66;;;17.69;35.63
68889;BME280;55930;47.412;8.790;2023-02-14T10:25:21;96192.00;;;18.57;34.27
68889;BME280;55930;47.412;8.790;2023-02-14T10:28:45;96181.44;;;20.73;31.82
68889;BME280;55930;47.412;8.790;2023-02-14T10:32:13;96182.50;;;19.33;32.77
68889;BME280;55930;47.412;8.790;2023-02-14T10:35:49;96187.41;;;20.35;31.04
68889;BME280;55930;47.412;8.790;2023-02-14T10:39:29;96183.34;;;19.19;31.76
68889;BME280;55930;47.412;8.790;2023-02-14T10:43:13;96182.22;;;19.57;32.08
68889;BME280;55930;47.412;8.790;2023-02-14T10:50:38;96181.09;;;22.08;27.65
68889;BME280;55930;47.412;8.790;2023-02-14T10:57:39;96167.59;;;21.58;28.21
68889;BME280;55930;47.412;8.790;2023-02-14T11:01:11;96162.94;;;21.53;28.84
68889;BME280;55930;47.412;8.790;2023-02-14T11:04:33;96161.47;;;19.95;31.68
68889;BME280;55930;47.412;8.790;2023-02-14T11:07:54;96154.19;;;18.46;32.61
68889;BME280;55930;47.412;8.790;2023-02-14T11:11:27;96159.31;;;16.71;37.76
68889;BME280;55930;47.412;8.790;2023-02-14T11:18:30;96149.53;;;12.67;48.13
68889;BME280;55930;47.412;8.790;2023-02-14T11:21:57;96142.41;;;13.07;49.02
68889;BME280;55930;47.412;8.790;2023-02-14T11:25:25;96145.16;;;13.16;48.25
68889;BME280;55930;47.412;8.790;2023-02-14T11:32:19;96117.63;;;18.54;34.09
68889;BME280;55930;47.412;8.790;2023-02-14T11:35:50;96108.69;;;19.77;33.52
68889;BME280;55930;47.412;8.790;2023-02-14T11:39:34;96093.31;;;22.15;28.48
68889;BME280;55930;47.412;8.790;2023-02-14T11:42:57;96086.63;;;22.33;28.00
68889;BME280;55930;47.412;8.790;2023-02-14T11:50:03;96060.94;;;22.56;28.01
68889;BME280;55930;47.412;8.790;2023-02-14T11:53:43;96047.34;;;24.81;25.48
68889;BME280;55930;47.412;8.790;2023-02-14T11:57:13;96036.44;;;23.68;27.40
68889;BME280;55930;47.412;8.790;2023-02-14T12:00:36;96028.06;;;23.12;28.68
68889;BME280;55930;47.412;8.790;2023-02-14T12:04:16;96018.50;;;25.68;25.38
68889;BME280;55930;47.412;8.790;2023-02-14T12:07:42;96002.31;;;22.29;29.12
68889;BME280;55930;47.412;8.790;2023-02-14T12:11:20;95992.38;;;24.74;26.25
68889;BME280;55930;47.412;8.790;2023-02-14T12:14:41;95981.09;;;24.70;27.14
68889;BME280;55930;47.412;8.790;2023-02-14T12:25:20;96029.41;;;21.10;31.97
68889;BME280;55930;47.412;8.790;2023-02-14T12:28:50;96057.75;;;15.48;43.30
68889;BME280;55930;47.412;8.790;2023-02-14T12:32:22;95975.66;;;19.52;38.12
68889;BME280;55930;47.412;8.790;2023-02-14T12:35:53;95961.06;;;23.67;29.19
68889;BME280;55930;47.412;8.790;2023-02-14T12:43:29;95958.16;;;24.85;28.32
68889;BME280;55930;47.412;8.790;2023-02-14T12:53:54;95982.13;;;24.99;28.12
68889;BME280;55930;47.412;8.790;2023-02-14T12:57:43;95979.75;;;24.96;27.25
68889;BME280;55930;47.412;8.790;2023-02-14T13:05:14;95987.19;;;24.26;27.27
68889;BME280;55930;47.412;8.790;2023-02-14T13:09:16;95988.47;;;24.57;28.48
68889;BME280;55930;47.412;8.790;2023-02-14T13:12:50;95998.59;;;25.99;26.02
68889;BME280;55930;47.412;8.790;2023-02-14T13:23:28;95988.75;;;25.30;26.91
68889;BME280;55930;47.412;8.790;2023-02-14T13:26:54;95985.50;;;23.61;28.15
68889;BME280;55930;47.412;8.790;2023-02-14T13:30:43;95987.75;;;18.62;37.32
68889;BME280;55930;47.412;8.790;2023-02-14T13:34:22;95996.22;;;16.78;41.09
68889;BME280;55930;47.412;8.790;2023-02-14T13:37:51;95989.78;;;20.01;35.61
68889;BME280;55930;47.412;8.790;2023-02-14T13:41:13;95985.66;;;23.44;29.40
68889;BME280;55930;47.412;8.790;2023-02-14T13:44:46;95993.00;;;21.66;30.88
68889;BME280;55930;47.412;8.790;2023-02-14T13:48:18;95987.72;;;23.08;29.11
68889;BME280;55930;47.412;8.790;2023-02-14T13:51:59;95989.59;;;24.48;27.17
68889;BME280;55930;47.412;8.790;2023-02-14T13:55:32;95984.78;;;23.60;28.74
68889;BME280;55930;47.412;8.790;2023-02-14T14:05:57;95993.75;;;21.61;30.19
68889;BME280;55930;47.412;8.790;2023-02-14T14:13:01;95989.44;;;19.71;33.99
68889;BME280;55930;47.412;8.790;2023-02-14T14:19:45;95983.75;;;14.01;45.00
68889;BME280;55930;47.412;8.790;2023-02-14T14:23:39;95987.75;;;15.74;42.51
68889;BME280;55930;47.412;8.790;2023-02-14T14:30:24;95983.03;;;19.20;35.20
68889;BME280;55930;47.412;8.790;2023-02-14T14:33:58;95973.56;;;19.78;35.06
68889;BME280;55930;47.412;8.790;2023-02-14T14:37:22;95966.94;;;18.89;35.97
68889;BME280;55930;47.412;8.790;2023-02-14T14:40:45;95972.88;;;17.34;38.56
68889;BME280;55930;47.412;8.790;2023-02-14T14:44:06;95978.59;;;15.65;42.62
68889;BME280;55930;47.412;8.790;2023-02-14T14:47:35;95973.09;;;15.12;44.25
68889;BME280;55930;47.412;8.790;2023-02-14T14:50:57;95971.25;;;12.32;50.94
68889;BME280;55930;47.412;8.790;2023-02-14T14:54:19;95971.81;;;12.89;50.50
68889;BME280;55930;47.412;8.790;2023-02-14T14:57:49;95973.28;;;12.50;53.12
68889;BME280;55930;47.412;8.790;2023-02-14T15:01:27;95969.84;;;11.97;53.69
68889;BME280;55930;47.412;8.790;2023-02-14T15:04:48;95961.91;;;12.06;55.33
68889;BME280;55930;47.412;8.790;2023-02-14T15:11:52;95962.69;;;11.72;55.90
68889;BME280;55930;47.412;8.790;2023-02-14T15:15:31;95962.31;;;10.76;58.91
68889;BME280;55930;47.412;8.790;2023-02-14T15:19:00;95963.44;;;10.08;62.33
68889;BME280;55930;47.412;8.790;2023-02-14T15:26:00;95959.38;;;10.32;62.73
68889;BME280;55930;47.412;8.790;2023-02-14T15:29:22;95962.56;;;9.98;63.42
68889;BME280;55930;47.412;8.790;2023-02-14T15:32:43;95963.03;;;9.80;63.70
68889;BME280;55930;47.412;8.790;2023-02-14T15:36:07;95965.31;;;9.66;64.73
68889;BME280;55930;47.412;8.790;2023-02-14T15:39:53;95966.75;;;9.83;64.87
68889;BME280;55930;47.412;8.790;2023-02-14T15:46:38;95954.66;;;9.37;66.63
68889;BME280;55930;47.412;8.790;2023-02-14T15:49:59;95957.72;;;9.51;65.82
68889;BME280;55930;47.412;8.790;2023-02-14T15:56:49;95952.38;;;8.90;66.77
68889;BME280;55930;47.412;8.790;2023-02-14T16:00:16;95954.44;;;8.47;69.09
68889;BME280;55930;47.412;8.790;2023-02-14T16:03:41;95952.56;;;7.88;72.65
68889;BME280;55930;47.412;8.790;2023-02-14T16:07:27;95964.63;;;7.22;76.15
68889;BME280;55930;47.412;8.790;2023-02-14T16:14:33;95954.78;;;6.49;81.58
68889;BME280;55930;47.412;8.790;2023-02-14T16:17:54;95952.66;;;6.07;83.53
68889;BME280;55930;47.412;8.790;2023-02-14T16:21:25;95957.56;;;5.67;85.98
68889;BME280;55930;47.412;8.790;2023-02-14T16:24:46;95956.09;;;5.66;86.67
68889;BME280;55930;47.412;8.790;2023-02-14T16:28:07;95953.81;;;5.27;88.64
68889;BME280;55930;47.412;8.790;2023-02-14T16:31:28;95963.06;;;5.02;89.91
68889;BME280;55930;47.412;8.790;2023-02-14T16:34:49;95968.09;;;4.78;90.57
68889;BME280;55930;47.412;8.790;2023-02-14T16:38:19;95962.69;;;4.41;93.42
68889;BME280;55930;47.412;8.790;2023-02-14T16:41:44;95967.59;;;4.35;92.94
68889;BME280;55930;47.412;8.790;2023-02-14T16:45:06;95963.59;;;4.06;94.03
68889;BME280;55930;47.412;8.790;2023-02-14T16:48:26;95963.25;;;3.97;94.53
68889;BME280;55930;47.412;8.790;2023-02-14T16:51:47;95970.47;;;3.64;95.64
68889;BME280;55930;47.412;8.790;2023-02-14T16:55:17;95974.97;;;3.53;97.07
68889;BME280;55930;47.412;8.790;2023-02-14T16:58:42;95974.25;;;3.28;97.93
68889;BME280;55930;47.412;8.790;2023-02-14T17:02:02;95975.00;;;3.07;97.67
68889;BME280;55930;47.412;8.790;2023-02-14T17:05:25;95971.63;;;2.99;99.99
68889;BME280;55930;47.412;8.790;2023-02-14T17:08:49;95974.63;;;2.94;98.93
68889;BME280;55930;47.412;8.790;2023-02-14T17:12:19;95977.25;;;2.84;100.00
68889;BME280;55930;47.412;8.790;2023-02-14T17:15:40;95984.31;;;2.65;100.00
68889;BME280;55930;47.412;8.790;2023-02-14T17:19:01;95977.22;;;2.62;100.00
68889;BME280;55930;47.412;8.790;2023-02-14T17:22:22;95986.13;;;2.40;100.00
68889;BME280;55930;47.412;8.790;2023-02-14T17:25:43;95984.97;;;2.27;100.00
68889;BME280;55930;47.412;8.790;2023-02-14T17:29:06;95993.53;;;2.13;100.00
68889;BME280;55930;47.412;8.790;2023-02-14T17:32:26;95989.41;;;2.12;100.00
68889;BME280;55930;47.412;8.790;2023-02-14T17:35:47;95993.53;;;2.13;100.00
68889;BME280;55930;47.412;8.790;2023-02-14T17:39:08;95978.88;;;1.98;100.00
68889;BME280;55930;47.412;8.790;2023-02-14T17:42:35;95981.41;;;1.84;100.00
68889;BME280;55930;47.412;8.790;2023-02-14T17:45:57;95970.09;;;1.59;100.00
68889;BME280;55930;47.412;8.790;2023-02-14T17:49:18;95965.94;;;1.50;100.00
68889;BME280;55930;47.412;8.790;2023-02-14T17:52:38;95964.81;;;1.55;100.00
68889;BME280;55930;47.412;8.790;2023-02-14T17:56:11;95963.31;;;1.54;100.00
68889;BME280;55930;47.412;8.790;2023-02-14T17:59:32;95967.31;;;1.34;100.00
68889;BME280;55930;47.412;8.790;2023-02-14T18:02:53;95959.19;;;1.49;100.00
68889;BME280;55930;47.412;8.790;2023-02-14T18:06:13;95966.56;;;1.33;100.00
68889;BME280;55930;47.412;8.790;2023-02-14T18:09:34;95966.88;;;1.25;100.00
68889;BME280;55930;47.412;8.790;2023-02-14T18:12:56;95965.28;;;1.13;100.00
68889;BME280;55930;47.412;8.790;2023-02-14T18:16:16;95975.91;;;1.38;100.00
68889;BME280;55930;47.412;8.790;2023-02-14T18:19:37;95965.47;;;1.38;100.00
68889;BME280;55930;47.412;8.790;2023-02-14T18:22:59;95973.81;;;1.06;100.00
68889;BME280;55930;47.412;8.790;2023-02-14T18:26:21;95970.31;;;0.88;100.00
68889;BME280;55930;47.412;8.790;2023-02-14T18:29:42;95975.56;;;0.92;100.00
68889;BME280;55930;47.412;8.790;2023-02-14T18:33:02;95972.56;;;0.90;100.00
68889;BME280;55930;47.412;8.790;2023-02-14T18:36:23;95966.47;;;0.71;100.00
68889;BME280;55930;47.412;8.790;2023-02-14T18:39:43;95964.56;;;0.72;100.00
68889;BME280;55930;47.412;8.790;2023-02-14T18:43:04;95960.09;;;0.72;100.00
68889;BME280;55930;47.412;8.790;2023-02-14T18:46:26;95955.22;;;0.67;100.00
68889;BME280;55930;47.412;8.790;2023-02-14T18:49:48;95959.50;;;0.49;100.00
68889;BME280;55930;47.412;8.790;2023-02-14T18:53:08;95953.09;;;0.40;100.00
68889;BME280;55930;47.412;8.790;2023-02-14T18:56:31;95951.59;;;0.38;100.00
68889;BME280;55930;47.412;8.790;2023-02-14T18:59:53;95948.53;;;0.29;100.00
68889;BME280;55930;47.412;8.790;2023-02-14T19:03:16;95947.34;;;-0.10;100.00
68889;BME280;55930;47.412;8.790;2023-02-14T19:06:37;95953.06;;;0.03;100.00
68889;BME280;55930;47.412;8.790;2023-02-14T19:10:00;95948.31;;;0.12;100.00
68889;BME280;55930;47.412;8.790;2023-02-14T19:13:20;95943.50;;;0.14;100.00
68889;BME280;55930;47.412;8.790;2023-02-14T19:16:44;95951.47;;;-0.09;100.00
68889;BME280;55930;47.412;8.790;2023-02-14T19:20:11;95945.78;;;-0.15;100.00
68889;BME280;55930;47.412;8.790;2023-02-14T19:23:31;95945.34;;;-0.20;100.00
68889;BME280;55930;47.412;8.790;2023-02-14T19:26:53;95942.59;;;-0.31;100.00
68889;BME280;55930;47.412;8.790;2023-02-14T19:30:15;95935.63;;;-0.23;100.00
68889;BME280;55930;47.412;8.790;2023-02-14T19:33:40;95936.88;;;-0.44;100.00
68889;BME280;55930;47.412;8.790;2023-02-14T19:37:01;95938.78;;;-0.41;100.00
68889;BME280;55930;47.412;8.790;2023-02-14T19:40:24;95937.09;;;-0.26;100.00
68889;BME280;55930;47.412;8.790;2023-02-14T19:43:46;95937.56;;;-0.47;100.00
68889;BME280;55930;47.412;8.790;2023-02-14T19:47:08;95936.03;;;-0.51;100.00
68889;BME280;55930;47.412;8.790;2023-02-14T19:50:28;95929.47;;;-0.42;100.00
68889;BME280;55930;47.412;8.790;2023-02-14T19:53:49;95941.38;;;-0.41;100.00
68889;BME280;55930;47.412;8.790;2023-02-14T19:57:12;95931.25;;;-0.46;100.00
68889;BME280;55930;47.412;8.790;2023-02-14T20:00:33;95934.78;;;-0.61;100.00
68889;BME280;55930;47.412;8.790;2023-02-14T20:03:56;95934.38;;;-0.63;100.00